Lowell, Massachusetts
Current Conditions -  °F | °C
As of 1:54 AM on Wednesday 22 Oct 2014 (Local Time) from KLWM Reporting Station
Overcast Overcast  
Wind Chill: 45°   Ceiling: 700
Heat Index: 49°   Visibility: 10mi
Dew Point: 47°   Wind: 8mph
Humidity: 93%   Direction: 20°NNE
Pressure: 30.02"   Gusts: NA
Location:  42.65°N, 71.31°W
Report Text: KLWM 220554Z AUTO 02007KT 10SM OVC007 09/08 A3002 RMK AO2 SLP164 60000 T00940083 10122 20094 56004
Loading
Personal Weather Stations






























Interactive Weather Map New forecast layout! Learn more

10-Day Weather Forecast

Advertisements
Track Severe Weather on mobile